sensor_id;sensor_type;location;lat;lon;timestamp;pressure;altitude;pressure_sealevel;temperature
61703;BMP280;47622;47.726;3.298;2023-02-26T00:00:35;98668.63;;;1.63
61703;BMP280;47622;47.726;3.298;2023-02-26T00:03:01;98659.03;;;1.58
61703;BMP280;47622;47.726;3.298;2023-02-26T00:05:26;98670.13;;;1.58
61703;BMP280;47622;47.726;3.298;2023-02-26T00:07:52;98665.69;;;1.54
61703;BMP280;47622;47.726;3.298;2023-02-26T00:10:18;98669.81;;;1.50
61703;BMP280;47622;47.726;3.298;2023-02-26T00:12:44;98678.59;;;1.54
61703;BMP280;47622;47.726;3.298;2023-02-26T00:15:11;98668.38;;;1.37
61703;BMP280;47622;47.726;3.298;2023-02-26T00:17:49;98680.81;;;1.40
61703;BMP280;47622;47.726;3.298;2023-02-26T00:20:18;98692.31;;;1.27
61703;BMP280;47622;47.726;3.298;2023-02-26T00:22:44;98681.47;;;1.25
61703;BMP280;47622;47.726;3.298;2023-02-26T00:25:12;98685.16;;;1.35
61703;BMP280;47622;47.726;3.298;2023-02-26T00:27:38;98682.44;;;1.19
61703;BMP280;47622;47.726;3.298;2023-02-26T00:30:05;98697.41;;;1.17
61703;BMP280;47622;47.726;3.298;2023-02-26T00:32:32;98690.50;;;1.23
61703;BMP280;47622;47.726;3.298;2023-02-26T00:34:58;98681.00;;;1.28
61703;BMP280;47622;47.726;3.298;2023-02-26T00:40:02;98678.78;;;1.15
61703;BMP280;47622;47.726;3.298;2023-02-26T00:42:31;98686.53;;;1.15
61703;BMP280;47622;47.726;3.298;2023-02-26T00:44:57;98678.44;;;1.07
61703;BMP280;47622;47.726;3.298;2023-02-26T00:50:17;98669.84;;;1.01
61703;BMP280;47622;47.726;3.298;2023-02-26T00:55:18;98674.41;;;0.94
61703;BMP280;47622;47.726;3.298;2023-02-26T00:57:44;98680.06;;;0.91
61703;BMP280;47622;47.726;3.298;2023-02-26T01:00:11;98681.63;;;0.92
61703;BMP280;47622;47.726;3.298;2023-02-26T01:02:38;98694.03;;;0.95
61703;BMP280;47622;47.726;3.298;2023-02-26T01:05:05;98693.06;;;1.01
61703;BMP280;47622;47.726;3.298;2023-02-26T01:07:46;98688.88;;;0.95
61703;BMP280;47622;47.726;3.298;2023-02-26T01:10:15;98698.16;;;0.96
61703;BMP280;47622;47.726;3.298;2023-02-26T01:12:41;98692.41;;;0.89
61703;BMP280;47622;47.726;3.298;2023-02-26T01:15:08;98694.94;;;0.84
61703;BMP280;47622;47.726;3.298;2023-02-26T01:17:49;98698.53;;;0.83
61703;BMP280;47622;47.726;3.298;2023-02-26T01:20:20;98696.97;;;0.82
61703;BMP280;47622;47.726;3.298;2023-02-26T01:22:53;98697.16;;;0.75
61703;BMP280;47622;47.726;3.298;2023-02-26T01:25:26;98696.22;;;0.81
61703;BMP280;47622;47.726;3.298;2023-02-26T01:27:53;98700.16;;;0.67
61703;BMP280;47622;47.726;3.298;2023-02-26T01:30:22;98696.53;;;0.68
61703;BMP280;47622;47.726;3.298;2023-02-26T01:35:41;98702.06;;;0.55
61703;BMP280;47622;47.726;3.298;2023-02-26T01:38:29;98703.16;;;0.59
61703;BMP280;47622;47.726;3.298;2023-02-26T01:41:02;98711.72;;;0.64
61703;BMP280;47622;47.726;3.298;2023-02-26T01:43:35;98714.69;;;0.56
61703;BMP280;47622;47.726;3.298;2023-02-26T01:46:17;98707.91;;;0.50
61703;BMP280;47622;47.726;3.298;2023-02-26T01:48:51;98708.44;;;0.52
61703;BMP280;47622;47.726;3.298;2023-02-26T01:51:38;98714.88;;;0.49
61703;BMP280;47622;47.726;3.298;2023-02-26T01:54:04;98710.97;;;0.47
61703;BMP280;47622;47.726;3.298;2023-02-26T01:56:30;98690.81;;;0.44
61703;BMP280;47622;47.726;3.298;2023-02-26T01:58:55;98710.34;;;0.40
61703;BMP280;47622;47.726;3.298;2023-02-26T02:01:21;98710.81;;;0.37
61703;BMP280;47622;47.726;3.298;2023-02-26T02:03:46;98714.91;;;0.33
61703;BMP280;47622;47.726;3.298;2023-02-26T02:06:24;98714.22;;;0.20
61703;BMP280;47622;47.726;3.298;2023-02-26T02:08:50;98701.03;;;0.17
61703;BMP280;47622;47.726;3.298;2023-02-26T02:11:16;98703.53;;;0.29
61703;BMP280;47622;47.726;3.298;2023-02-26T02:16:55;98711.03;;;0.13
61703;BMP280;47622;47.726;3.298;2023-02-26T02:33:20;98711.97;;;0.07
61703;BMP280;47622;47.726;3.298;2023-02-26T02:35:55;98716.97;;;-0.03
61703;BMP280;47622;47.726;3.298;2023-02-26T02:38:50;98718.66;;;-0.09
61703;BMP280;47622;47.726;3.298;2023-02-26T02:41:24;98732.06;;;-0.23
61703;BMP280;47622;47.726;3.298;2023-02-26T02:43:51;98721.22;;;-0.25
61703;BMP280;47622;47.726;3.298;2023-02-26T02:46:23;98733.41;;;-0.21
61703;BMP280;47622;47.726;3.298;2023-02-26T02:49:10;98727.00;;;-0.18
61703;BMP280;47622;47.726;3.298;2023-02-26T02:51:57;98736.59;;;-0.31
61703;BMP280;47622;47.726;3.298;2023-02-26T02:57:10;98736.59;;;-0.31
61703;BMP280;47622;47.726;3.298;2023-02-26T02:59:50;98742.13;;;-0.22
61703;BMP280;47622;47.726;3.298;2023-02-26T03:02:22;98738.03;;;-0.35
61703;BMP280;47622;47.726;3.298;2023-02-26T03:04:52;98734.34;;;-0.39
61703;BMP280;47622;47.726;3.298;2023-02-26T03:07:18;98731.25;;;-0.41
61703;BMP280;47622;47.726;3.298;2023-02-26T03:09:43;98754.22;;;-0.22
61703;BMP280;47622;47.726;3.298;2023-02-26T03:12:09;98744.66;;;-0.39
61703;BMP280;47622;47.726;3.298;2023-02-26T03:14:35;98745.97;;;-0.24
61703;BMP280;47622;47.726;3.298;2023-02-26T03:17:32;98742.06;;;-0.39
61703;BMP280;47622;47.726;3.298;2023-02-26T03:25:18;98750.13;;;-0.35
61703;BMP280;47622;47.726;3.298;2023-02-26T03:28:26;98749.78;;;-0.39
61703;BMP280;47622;47.726;3.298;2023-02-26T03:30:57;98754.94;;;-0.39
61703;BMP280;47622;47.726;3.298;2023-02-26T03:33:27;98766.22;;;-0.57
61703;BMP280;47622;47.726;3.298;2023-02-26T03:36:00;98768.53;;;-0.55
61703;BMP280;47622;47.726;3.298;2023-02-26T03:38:46;98757.44;;;-0.44
61703;BMP280;47622;47.726;3.298;2023-02-26T03:44:04;98765.53;;;-0.52
61703;BMP280;47622;47.726;3.298;2023-02-26T03:46:40;98766.53;;;-0.53
61703;BMP280;47622;47.726;3.298;2023-02-26T03:49:12;98758.34;;;-0.50
61703;BMP280;47622;47.726;3.298;2023-02-26T03:51:39;98769.66;;;-0.51
61703;BMP280;47622;47.726;3.298;2023-02-26T03:54:18;98775.16;;;-0.59
61703;BMP280;47622;47.726;3.298;2023-02-26T03:56:46;98781.56;;;-0.62
61703;BMP280;47622;47.726;3.298;2023-02-26T03:59:13;98774.16;;;-0.58
61703;BMP280;47622;47.726;3.298;2023-02-26T04:01:59;98789.03;;;-0.60
61703;BMP280;47622;47.726;3.298;2023-02-26T04:05:31;98786.84;;;-0.68
61703;BMP280;47622;47.726;3.298;2023-02-26T04:07:24;98787.47;;;-0.61
61703;BMP280;47622;47.726;3.298;2023-02-26T04:09:51;98782.59;;;-0.74
61703;BMP280;47622;47.726;3.298;2023-02-26T04:12:26;98788.94;;;-0.65
61703;BMP280;47622;47.726;3.298;2023-02-26T04:14:54;98800.69;;;-0.69
61703;BMP280;47622;47.726;3.298;2023-02-26T04:17:21;98794.69;;;-0.87
61703;BMP280;47622;47.726;3.298;2023-02-26T04:19:46;98787.84;;;-0.81
61703;BMP280;47622;47.726;3.298;2023-02-26T04:22:12;98798.94;;;-0.81
61703;BMP280;47622;47.726;3.298;2023-02-26T04:24:38;98802.97;;;-0.85
61703;BMP280;47622;47.726;3.298;2023-02-26T04:27:03;98802.97;;;-0.85
61703;BMP280;47622;47.726;3.298;2023-02-26T04:29:29;98802.31;;;-0.92
61703;BMP280;47622;47.726;3.298;2023-02-26T04:31:55;98804.31;;;-0.94
61703;BMP280;47622;47.726;3.298;2023-02-26T04:34:20;98808.81;;;-1.01
61703;BMP280;47622;47.726;3.298;2023-02-26T04:36:46;98799.63;;;-0.97
61703;BMP280;47622;47.726;3.298;2023-02-26T04:39:12;98809.38;;;-0.99
61703;BMP280;47622;47.726;3.298;2023-02-26T04:41:38;98811.03;;;-0.93
61703;BMP280;47622;47.726;3.298;2023-02-26T04:44:04;98812.47;;;-0.97
61703;BMP280;47622;47.726;3.298;2023-02-26T04:46:30;98805.09;;;-0.93
61703;BMP280;47622;47.726;3.298;2023-02-26T04:48:56;98798.28;;;-0.88
61703;BMP280;47622;47.726;3.298;2023-02-26T04:51:21;98798.06;;;-0.98
61703;BMP280;47622;47.726;3.298;2023-02-26T04:53:47;98801.97;;;-1.07
61703;BMP280;47622;47.726;3.298;2023-02-26T04:56:13;98813.28;;;-1.08
61703;BMP280;47622;47.726;3.298;2023-02-26T04:58:39;98803.44;;;-1.11
61703;BMP280;47622;47.726;3.298;2023-02-26T05:01:05;98814.28;;;-1.09
61703;BMP280;47622;47.726;3.298;2023-02-26T05:03:31;98820.88;;;-1.13
61703;BMP280;47622;47.726;3.298;2023-02-26T05:05:56;98811.50;;;-1.19
61703;BMP280;47622;47.726;3.298;2023-02-26T05:08:22;98820.56;;;-1.17
61703;BMP280;47622;47.726;3.298;2023-02-26T05:10:49;98824.47;;;-1.14
61703;BMP280;47622;47.726;3.298;2023-02-26T05:13:15;98825.78;;;-1.23
61703;BMP280;47622;47.726;3.298;2023-02-26T05:15:44;98820.56;;;-1.17
61703;BMP280;47622;47.726;3.298;2023-02-26T05:18:10;98821.69;;;-1.01
61703;BMP280;47622;47.726;3.298;2023-02-26T05:20:36;98823.34;;;-1.18
61703;BMP280;47622;47.726;3.298;2023-02-26T05:23:02;98830.03;;;-1.17
61703;BMP280;47622;47.726;3.298;2023-02-26T05:25:27;98821.78;;;-1.19
61703;BMP280;47622;47.726;3.298;2023-02-26T05:27:53;98834.75;;;-1.14
61703;BMP280;47622;47.726;3.298;2023-02-26T05:30:20;98830.50;;;-1.20
61703;BMP280;47622;47.726;3.298;2023-02-26T05:32:45;98838.09;;;-1.14
61703;BMP280;47622;47.726;3.298;2023-02-26T05:35:11;98838.09;;;-1.25
61703;BMP280;47622;47.726;3.298;2023-02-26T05:37:37;98842.69;;;-1.16
61703;BMP280;47622;47.726;3.298;2023-02-26T05:40:04;98845.47;;;-1.17
61703;BMP280;47622;47.726;3.298;2023-02-26T05:42:30;98848.25;;;-1.07
61703;BMP280;47622;47.726;3.298;2023-02-26T05:44:56;98856.75;;;-1.07
61703;BMP280;47622;47.726;3.298;2023-02-26T05:47:22;98859.44;;;-1.13
61703;BMP280;47622;47.726;3.298;2023-02-26T05:49:48;98853.28;;;-1.12
61703;BMP280;47622;47.726;3.298;2023-02-26T05:52:14;98859.91;;;-1.16
61703;BMP280;47622;47.726;3.298;2023-02-26T05:54:40;98862.66;;;-1.29
61703;BMP280;47622;47.726;3.298;2023-02-26T05:57:05;98864.94;;;-1.21
61703;BMP280;47622;47.726;3.298;2023-02-26T05:59:31;98867.28;;;-1.20
61703;BMP280;47622;47.726;3.298;2023-02-26T06:01:57;98851.72;;;-1.13
61703;BMP280;47622;47.726;3.298;2023-02-26T06:04:22;98860.00;;;-1.23
61703;BMP280;47622;47.726;3.298;2023-02-26T06:06:48;98859.56;;;-1.32
61703;BMP280;47622;47.726;3.298;2023-02-26T06:09:14;98865.47;;;-1.31
61703;BMP280;47622;47.726;3.298;2023-02-26T06:11:39;98871.88;;;-1.22
61703;BMP280;47622;47.726;3.298;2023-02-26T06:14:05;98861.78;;;-1.23
61703;BMP280;47622;47.726;3.298;2023-02-26T06:16:31;98868.72;;;-1.24
61703;BMP280;47622;47.726;3.298;2023-02-26T06:18:57;98867.38;;;-1.26
61703;BMP280;47622;47.726;3.298;2023-02-26T06:21:22;98859.44;;;-1.25
61703;BMP280;47622;47.726;3.298;2023-02-26T06:23:48;98873.81;;;-1.36
61703;BMP280;47622;47.726;3.298;2023-02-26T06:26:14;98872.06;;;-1.23
61703;BMP280;47622;47.726;3.298;2023-02-26T06:28:39;98872.72;;;-1.28
61703;BMP280;47622;47.726;3.298;2023-02-26T06:31:06;98876.09;;;-1.27
61703;BMP280;47622;47.726;3.298;2023-02-26T06:33:31;98866.69;;;-1.34
61703;BMP280;47622;47.726;3.298;2023-02-26T06:35:57;98880.63;;;-1.41
61703;BMP280;47622;47.726;3.298;2023-02-26T06:38:25;98876.31;;;-1.17
61703;BMP280;47622;47.726;3.298;2023-02-26T06:40:50;98884.59;;;-1.15
61703;BMP280;47622;47.726;3.298;2023-02-26T06:43:16;98890.66;;;-1.21
61703;BMP280;47622;47.726;3.298;2023-02-26T06:45:41;98883.84;;;-1.16
61703;BMP280;47622;47.726;3.298;2023-02-26T06:48:07;98885.75;;;-1.11
61703;BMP280;47622;47.726;3.298;2023-02-26T06:50:33;98887.53;;;-1.00
61703;BMP280;47622;47.726;3.298;2023-02-26T06:52:58;98889.09;;;-0.99
61703;BMP280;47622;47.726;3.298;2023-02-26T06:55:24;98898.06;;;-0.90
61703;BMP280;47622;47.726;3.298;2023-02-26T06:57:54;98905.31;;;-0.75
61703;BMP280;47622;47.726;3.298;2023-02-26T07:00:21;98908.34;;;-0.90
61703;BMP280;47622;47.726;3.298;2023-02-26T07:02:46;98895.81;;;-0.74
61703;BMP280;47622;47.726;3.298;2023-02-26T07:05:12;98903.31;;;-0.73
61703;BMP280;47622;47.726;3.298;2023-02-26T07:07:37;98908.41;;;-0.49
61703;BMP280;47622;47.726;3.298;2023-02-26T07:10:04;98909.41;;;-0.39
61703;BMP280;47622;47.726;3.298;2023-02-26T07:12:30;98902.56;;;-0.21
61703;BMP280;47622;47.726;3.298;2023-02-26T07:14:55;98918.34;;;-0.06
61703;BMP280;47622;47.726;3.298;2023-02-26T07:17:21;98917.59;;;-0.18
61703;BMP280;47622;47.726;3.298;2023-02-26T07:19:48;98921.78;;;-0.01
61703;BMP280;47622;47.726;3.298;2023-02-26T07:22:14;98923.25;;;0.07
61703;BMP280;47622;47.726;3.298;2023-02-26T07:24:41;98925.22;;;0.62
61703;BMP280;47622;47.726;3.298;2023-02-26T07:27:07;98921.00;;;0.90
61703;BMP280;47622;47.726;3.298;2023-02-26T07:29:32;98913.66;;;0.65
61703;BMP280;47622;47.726;3.298;2023-02-26T07:31:58;98920.94;;;1.18
61703;BMP280;47622;47.726;3.298;2023-02-26T07:34:24;98926.16;;;0.90
61703;BMP280;47622;47.726;3.298;2023-02-26T07:36:49;98924.84;;;0.25
61703;BMP280;47622;47.726;3.298;2023-02-26T07:39:15;98925.53;;;0.20
61703;BMP280;47622;47.726;3.298;2023-02-26T07:41:40;98931.25;;;0.22
61703;BMP280;47622;47.726;3.298;2023-02-26T07:44:06;98926.88;;;0.23
61703;BMP280;47622;47.726;3.298;2023-02-26T07:46:32;98930.94;;;0.36
61703;BMP280;47622;47.726;3.298;2023-02-26T07:48:57;98922.25;;;0.53
61703;BMP280;47622;47.726;3.298;2023-02-26T07:51:23;98931.28;;;0.39
61703;BMP280;47622;47.726;3.298;2023-02-26T07:53:48;98941.03;;;0.83
61703;BMP280;47622;47.726;3.298;2023-02-26T07:56:14;98948.78;;;1.16
61703;BMP280;47622;47.726;3.298;2023-02-26T07:58:39;98947.22;;;1.54
61703;BMP280;47622;47.726;3.298;2023-02-26T08:01:05;98952.97;;;1.39
61703;BMP280;47622;47.726;3.298;2023-02-26T08:03:31;98950.53;;;1.49
61703;BMP280;47622;47.726;3.298;2023-02-26T08:05:57;98948.66;;;1.89
61703;BMP280;47622;47.726;3.298;2023-02-26T08:08:25;98950.59;;;2.20
61703;BMP280;47622;47.726;3.298;2023-02-26T08:10:51;98954.69;;;2.16
61703;BMP280;47622;47.726;3.298;2023-02-26T08:13:17;98961.53;;;2.27
61703;BMP280;47622;47.726;3.298;2023-02-26T08:15:42;98978.00;;;2.21
61703;BMP280;47622;47.726;3.298;2023-02-26T08:18:09;98954.16;;;2.73
61703;BMP280;47622;47.726;3.298;2023-02-26T08:20:34;98955.34;;;2.33
61703;BMP280;47622;47.726;3.298;2023-02-26T08:23:00;98958.97;;;2.97
61703;BMP280;47622;47.726;3.298;2023-02-26T08:25:26;98952.97;;;2.86
61703;BMP280;47622;47.726;3.298;2023-02-26T08:27:51;98966.00;;;3.38
61703;BMP280;47622;47.726;3.298;2023-02-26T08:30:18;98967.94;;;3.63
61703;BMP280;47622;47.726;3.298;2023-02-26T08:32:43;98955.41;;;4.13
61703;BMP280;47622;47.726;3.298;2023-02-26T08:35:10;98961.91;;;4.41
61703;BMP280;47622;47.726;3.298;2023-02-26T08:37:36;98972.16;;;3.80
61703;BMP280;47622;47.726;3.298;2023-02-26T08:40:04;98974.63;;;4.63
61703;BMP280;47622;47.726;3.298;2023-02-26T08:42:30;98972.00;;;4.17
61703;BMP280;47622;47.726;3.298;2023-02-26T08:44:55;98968.41;;;4.58
61703;BMP280;47622;47.726;3.298;2023-02-26T08:47:21;98982.41;;;4.78
61703;BMP280;47622;47.726;3.298;2023-02-26T08:49:47;98972.22;;;5.97
61703;BMP280;47622;47.726;3.298;2023-02-26T08:52:12;98989.63;;;5.32
61703;BMP280;47622;47.726;3.298;2023-02-26T08:54:38;98975.97;;;4.55
61703;BMP280;47622;47.726;3.298;2023-02-26T08:57:03;98989.69;;;4.35
61703;BMP280;47622;47.726;3.298;2023-02-26T08:59:29;99015.41;;;4.37
61703;BMP280;47622;47.726;3.298;2023-02-26T09:01:55;98987.59;;;5.19
61703;BMP280;47622;47.726;3.298;2023-02-26T09:04:20;99006.28;;;5.21
61703;BMP280;47622;47.726;3.298;2023-02-26T09:06:46;98992.94;;;5.53
61703;BMP280;47622;47.726;3.298;2023-02-26T09:09:12;98993.13;;;5.77
61703;BMP280;47622;47.726;3.298;2023-02-26T09:11:37;98999.81;;;5.23
61703;BMP280;47622;47.726;3.298;2023-02-26T09:14:03;99001.16;;;4.90
61703;BMP280;47622;47.726;3.298;2023-02-26T09:16:30;98996.44;;;5.07
61703;BMP280;47622;47.726;3.298;2023-02-26T09:18:56;99007.59;;;5.28
61703;BMP280;47622;47.726;3.298;2023-02-26T09:21:22;99005.28;;;4.81
61703;BMP280;47622;47.726;3.298;2023-02-26T09:23:48;99003.94;;;5.29
61703;BMP280;47622;47.726;3.298;2023-02-26T09:26:13;99012.03;;;4.97
61703;BMP280;47622;47.726;3.298;2023-02-26T09:28:39;99028.84;;;6.10
61703;BMP280;47622;47.726;3.298;2023-02-26T09:31:05;98997.91;;;5.59
61703;BMP280;47622;47.726;3.298;2023-02-26T09:33:32;99001.06;;;4.29
61703;BMP280;47622;47.726;3.298;2023-02-26T09:35:58;99018.25;;;5.11
61703;BMP280;47622;47.726;3.298;2023-02-26T09:38:24;99036.94;;;4.63
61703;BMP280;47622;47.726;3.298;2023-02-26T09:40:53;99009.81;;;4.02
61703;BMP280;47622;47.726;3.298;2023-02-26T09:48:44;99006.72;;;6.18
61703;BMP280;47622;47.726;3.298;2023-02-26T09:51:15;99013.38;;;5.80
61703;BMP280;47622;47.726;3.298;2023-02-26T09:53:43;99026.59;;;3.74
61703;BMP280;47622;47.726;3.298;2023-02-26T09:56:17;99023.63;;;3.18
61703;BMP280;47622;47.726;3.298;2023-02-26T09:58:44;99028.44;;;3.37
61703;BMP280;47622;47.726;3.298;2023-02-26T10:09:39;99058.69;;;3.31
61703;BMP280;47622;47.726;3.298;2023-02-26T10:17:51;99050.34;;;4.19
61703;BMP280;47622;47.726;3.298;2023-02-26T10:25:51;99052.00;;;4.66
61703;BMP280;47622;47.726;3.298;2023-02-26T10:31:05;99045.31;;;4.75
61703;BMP280;47622;47.726;3.298;2023-02-26T10:36:27;99047.88;;;7.13
61703;BMP280;47622;47.726;3.298;2023-02-26T10:39:02;99046.94;;;7.99
61703;BMP280;47622;47.726;3.298;2023-02-26T10:41:30;99056.81;;;8.21
61703;BMP280;47622;47.726;3.298;2023-02-26T10:44:26;99056.69;;;8.13
61703;BMP280;47622;47.726;3.298;2023-02-26T10:49:51;99061.63;;;4.80
61703;BMP280;47622;47.726;3.298;2023-02-26T10:52:24;99067.28;;;4.47
61703;BMP280;47622;47.726;3.298;2023-02-26T10:55:03;99077.53;;;3.59
61703;BMP280;47622;47.726;3.298;2023-02-26T10:57:34;99066.16;;;2.95
61703;BMP280;47622;47.726;3.298;2023-02-26T11:00:01;99064.78;;;2.56
61703;BMP280;47622;47.726;3.298;2023-02-26T11:02:33;99077.31;;;2.69
61703;BMP280;47622;47.726;3.298;2023-02-26T11:05:01;99080.72;;;3.02
61703;BMP280;47622;47.726;3.298;2023-02-26T11:07:29;99077.03;;;4.09
61703;BMP280;47622;47.726;3.298;2023-02-26T11:09:55;99067.84;;;4.95
61703;BMP280;47622;47.726;3.298;2023-02-26T11:12:21;99077.63;;;5.89
61703;BMP280;47622;47.726;3.298;2023-02-26T11:14:49;99052.50;;;4.52
61703;BMP280;47622;47.726;3.298;2023-02-26T11:20:17;99086.69;;;2.75
61703;BMP280;47622;47.726;3.298;2023-02-26T11:22:47;99083.38;;;2.80
61703;BMP280;47622;47.726;3.298;2023-02-26T11:25:17;99083.75;;;2.45
61703;BMP280;47622;47.726;3.298;2023-02-26T11:27:43;99088.28;;;2.32
61703;BMP280;47622;47.726;3.298;2023-02-26T11:30:20;99086.88;;;2.95
61703;BMP280;47622;47.726;3.298;2023-02-26T11:32:52;99093.94;;;3.32
61703;BMP280;47622;47.726;3.298;2023-02-26T11:35:23;99094.28;;;3.14
61703;BMP280;47622;47.726;3.298;2023-02-26T11:37:52;99089.91;;;2.87
61703;BMP280;47622;47.726;3.298;2023-02-26T11:40:39;99084.31;;;2.47
61703;BMP280;47622;47.726;3.298;2023-02-26T11:43:11;99073.66;;;2.43
61703;BMP280;47622;47.726;3.298;2023-02-26T11:45:41;99078.06;;;2.97
61703;BMP280;47622;47.726;3.298;2023-02-26T11:48:12;99080.53;;;2.81
61703;BMP280;47622;47.726;3.298;2023-02-26T11:50:45;99069.53;;;3.23
61703;BMP280;47622;47.726;3.298;2023-02-26T11:53:16;99082.94;;;3.94
61703;BMP280;47622;47.726;3.298;2023-02-26T11:55:46;99085.88;;;3.66
61703;BMP280;47622;47.726;3.298;2023-02-26T11:58:20;99087.91;;;3.59
61703;BMP280;47622;47.726;3.298;2023-02-26T12:00:47;99082.69;;;3.54
61703;BMP280;47622;47.726;3.298;2023-02-26T12:03:27;99070.59;;;2.95
61703;BMP280;47622;47.726;3.298;2023-02-26T12:05:53;99066.16;;;2.95
61703;BMP280;47622;47.726;3.298;2023-02-26T12:08:25;99076.94;;;2.82
61703;BMP280;47622;47.726;3.298;2023-02-26T12:11:14;99070.31;;;3.66
61703;BMP280;47622;47.726;3.298;2023-02-26T12:13:55;99062.28;;;4.25
61703;BMP280;47622;47.726;3.298;2023-02-26T12:27:46;99051.72;;;2.73
61703;BMP280;47622;47.726;3.298;2023-02-26T12:30:28;99047.91;;;2.80
61703;BMP280;47622;47.726;3.298;2023-02-26T12:33:20;99044.09;;;3.15
61703;BMP280;47622;47.726;3.298;2023-02-26T12:36:02;99033.13;;;3.08
61703;BMP280;47622;47.726;3.298;2023-02-26T12:38:35;99039.09;;;3.45
61703;BMP280;47622;47.726;3.298;2023-02-26T12:41:12;99041.66;;;3.40
61703;BMP280;47622;47.726;3.298;2023-02-26T12:43:48;99030.16;;;4.26
61703;BMP280;47622;47.726;3.298;2023-02-26T12:46:34;99030.31;;;3.46
61703;BMP280;47622;47.726;3.298;2023-02-26T12:52:23;99039.47;;;3.22
61703;BMP280;47622;47.726;3.298;2023-02-26T13:17:54;99041.81;;;2.97
61703;BMP280;47622;47.726;3.298;2023-02-26T13:20:24;99068.16;;;2.83
61703;BMP280;47622;47.726;3.298;2023-02-26T13:23:00;99045.16;;;2.65
61703;BMP280;47622;47.726;3.298;2023-02-26T13:25:37;99066.63;;;2.65
61703;BMP280;47622;47.726;3.298;2023-02-26T13:28:12;99048.03;;;3.22
61703;BMP280;47622;47.726;3.298;2023-02-26T13:30:48;99056.56;;;3.60
61703;BMP280;47622;47.726;3.298;2023-02-26T13:33:20;99052.34;;;4.01
61703;BMP280;47622;47.726;3.298;2023-02-26T13:35:49;99045.16;;;4.14
61703;BMP280;47622;47.726;3.298;2023-02-26T13:42:17;99060.00;;;3.02
61703;BMP280;47622;47.726;3.298;2023-02-26T13:44:26;99058.13;;;3.24
61703;BMP280;47622;47.726;3.298;2023-02-26T13:49:30;99035.75;;;3.13
61703;BMP280;47622;47.726;3.298;2023-02-26T13:51:58;99048.28;;;3.21
61703;BMP280;47622;47.726;3.298;2023-02-26T13:54:33;99053.84;;;3.08
61703;BMP280;47622;47.726;3.298;2023-02-26T13:57:21;99067.69;;;2.91
61703;BMP280;47622;47.726;3.298;2023-02-26T14:00:06;99070.69;;;2.78
61703;BMP280;47622;47.726;3.298;2023-02-26T14:02:46;99052.97;;;2.97
61703;BMP280;47622;47.726;3.298;2023-02-26T14:10:56;99051.75;;;3.05
61703;BMP280;47622;47.726;3.298;2023-02-26T14:13:33;99074.69;;;2.91
61703;BMP280;47622;47.726;3.298;2023-02-26T14:16:20;99056.22;;;3.09
61703;BMP280;47622;47.726;3.298;2023-02-26T14:26:35;99077.81;;;3.20
61703;BMP280;47622;47.726;3.298;2023-02-26T14:34:33;99063.63;;;3.01
61703;BMP280;47622;47.726;3.298;2023-02-26T14:37:07;99061.34;;;3.36
61703;BMP280;47622;47.726;3.298;2023-02-26T14:39:38;99080.81;;;3.44
61703;BMP280;47622;47.726;3.298;2023-02-26T14:42:09;99060.81;;;3.39
61703;BMP280;47622;47.726;3.298;2023-02-26T14:44:44;99069.88;;;3.79
61703;BMP280;47622;47.726;3.298;2023-02-26T14:47:11;99094.50;;;3.39
61703;BMP280;47622;47.726;3.298;2023-02-26T14:49:41;99093.81;;;3.17
61703;BMP280;47622;47.726;3.298;2023-02-26T14:57:46;99070.78;;;2.88
61703;BMP280;47622;47.726;3.298;2023-02-26T15:00:35;99080.16;;;2.94
61703;BMP280;47622;47.726;3.298;2023-02-26T15:03:40;99083.78;;;2.93
61703;BMP280;47622;47.726;3.298;2023-02-26T15:11:43;99086.00;;;3.12
61703;BMP280;47622;47.726;3.298;2023-02-26T15:14:25;99073.09;;;3.17
61703;BMP280;47622;47.726;3.298;2023-02-26T15:25:33;99109.75;;;3.04
61703;BMP280;47622;47.726;3.298;2023-02-26T15:28:02;99086.19;;;3.05
61703;BMP280;47622;47.726;3.298;2023-02-26T15:30:29;99114.75;;;2.83
61703;BMP280;47622;47.726;3.298;2023-02-26T15:33:04;99102.81;;;2.82
61703;BMP280;47622;47.726;3.298;2023-02-26T15:35:31;99105.16;;;2.84
61703;BMP280;47622;47.726;3.298;2023-02-26T15:38:00;99101.84;;;2.88
61703;BMP280;47622;47.726;3.298;2023-02-26T15:40:30;99092.75;;;2.86
61703;BMP280;47622;47.726;3.298;2023-02-26T15:42:58;99096.06;;;2.81
61703;BMP280;47622;47.726;3.298;2023-02-26T15:45:30;99097.66;;;2.82
61703;BMP280;47622;47.726;3.298;2023-02-26T15:47:59;99099.69;;;2.80
61703;BMP280;47622;47.726;3.298;2023-02-26T15:50:32;99096.69;;;2.88
61703;BMP280;47622;47.726;3.298;2023-02-26T15:53:01;99124.75;;;3.02
61703;BMP280;47622;47.726;3.298;2023-02-26T15:55:33;99099.09;;;3.00
61703;BMP280;47622;47.726;3.298;2023-02-26T15:58:00;99111.25;;;3.00
61703;BMP280;47622;47.726;3.298;2023-02-26T16:00:26;99109.19;;;3.02
61703;BMP280;47622;47.726;3.298;2023-02-26T16:02:56;99118.53;;;3.03
61703;BMP280;47622;47.726;3.298;2023-02-26T16:05:27;99117.91;;;2.90
61703;BMP280;47622;47.726;3.298;2023-02-26T16:07:54;99108.78;;;2.83
61703;BMP280;47622;47.726;3.298;2023-02-26T16:10:39;99125.03;;;2.78
61703;BMP280;47622;47.726;3.298;2023-02-26T16:13:06;99129.03;;;2.64
61703;BMP280;47622;47.726;3.298;2023-02-26T16:15:37;99134.59;;;2.78
61703;BMP280;47622;47.726;3.298;2023-02-26T16:18:06;99130.56;;;2.87
61703;BMP280;47622;47.726;3.298;2023-02-26T16:20:44;99136.03;;;2.90
61703;BMP280;47622;47.726;3.298;2023-02-26T16:23:21;99173.13;;;2.74
61703;BMP280;47622;47.726;3.298;2023-02-26T16:25:57;99155.16;;;2.62
61703;BMP280;47622;47.726;3.298;2023-02-26T16:28:30;99161.09;;;2.63
61703;BMP280;47622;47.726;3.298;2023-02-26T16:30:58;99141.38;;;2.57
61703;BMP280;47622;47.726;3.298;2023-02-26T16:33:26;99151.53;;;2.63
61703;BMP280;47622;47.726;3.298;2023-02-26T16:36:11;99148.56;;;2.55
61703;BMP280;47622;47.726;3.298;2023-02-26T16:38:44;99153.75;;;2.55
61703;BMP280;47622;47.726;3.298;2023-02-26T16:41:11;99142.88;;;2.53
61703;BMP280;47622;47.726;3.298;2023-02-26T16:46:12;99152.97;;;2.54
61703;BMP280;47622;47.726;3.298;2023-02-26T16:51:19;99154.84;;;2.59
61703;BMP280;47622;47.726;3.298;2023-02-26T16:53:53;99158.44;;;2.58
61703;BMP280;47622;47.726;3.298;2023-02-26T16:56:30;99153.28;;;2.58
61703;BMP280;47622;47.726;3.298;2023-02-26T16:59:14;99146.53;;;2.57
61703;BMP280;47622;47.726;3.298;2023-02-26T17:02:04;99171.94;;;2.60
61703;BMP280;47622;47.726;3.298;2023-02-26T17:04:36;99162.22;;;2.50
61703;BMP280;47622;47.726;3.298;2023-02-26T17:07:13;99173.84;;;2.48
61703;BMP280;47622;47.726;3.298;2023-02-26T17:09:44;99187.31;;;2.50
61703;BMP280;47622;47.726;3.298;2023-02-26T17:12:21;99191.47;;;2.51
61703;BMP280;47622;47.726;3.298;2023-02-26T17:14:54;99185.69;;;2.44